Buen Pasto, Argentina
Current Conditions -  °F | °C
As of 10:00 AM on Saturday 25 Oct 2014 (Local Time) from SAVC Reporting Station
Clear Clear  
Wind Chill: 72°   Ceiling: Unl
Heat Index: 72°   Visibility: 6mi
Dew Point: 39°   Wind: 12mph
Humidity: 31%   Direction: 270°W
Pressure: 29.71"   Gusts: NA
Location:  45.08°S, 69.47°W
Report Text: SAVC 251300Z 27010KT CAVOK 22/04 Q1006
Loading
Personal Weather Stations






























Interactive Weather Map New forecast layout! Learn more

10-Day Weather Forecast

Advertisements
Track Severe Weather on mobile